Homestead, FL

1:45 AM EDT on September 02, 2015 (GMT -0400)
Farmland Estates | | Change Station
CLOSE
Current Station
Personal Weather Station
Location: Homestead, FL
Elevation: 8 ft
Nearby Weather Stations

Elev 8 ft 25.47 °N, 80.52 °W | Updated 12 seconds ago

Clear
Clear
77.9 °F
Feels Like 80 °F
N
0.0
Wind Variable Wind from NNW
Gusts 0.0 mph

Today
High -- | Low -- °F
--% Chance of Precip.
Yesterday
High -- | Low -- °F
Precip. -- in
7:02 AM 7:40 PM
Waning Gibbous, 83% visible
Pressure 30.07 in
Visibility 10.0 miles
Clouds Few 2200 ft
Heat Index 80 °F
Dew Point 74 °F
Humidity 88%
Rainfall 0.00 in
Snow Depth Not available.
UV 0.0 out of 12
Pollen 4.40 out of 12
Air Quality Not available.
Flu Activity Not available.
METAR KHST 020458Z AUTO 08006KT 10SM FEW022 28/25 A3006 RMK AO2 SLP182 T02820248 403270252
Pressure 30.07 in
Visibility 10.0 miles
Clouds Few 2200 ft
Heat Index 80 °F
Dew Point 74 °F
Humidity 88%
Rainfall 0.00 in
Snow Depth Not available.
UV 0.0 out of 12
Pollen 4.40 out of 12
Air Quality Not available.
Flu Activity Not available.
METAR KHST 020458Z AUTO 08006KT 10SM FEW022 28/25 A3006 RMK AO2 SLP182 T02820248 403270252

10-Day Weather Forecast

×

Almanac

Astronomy

Sep. 02, 2015 Rise Set
Actual Time
Civil Twilight
Nautical Twilight
Astronomical Twilight
Moon
Length of Visible Light
Length of Day
Tomorrow will be .
, % of the Moon is Illuminated

Today's Extremes

State Highs State Lows

Community

WunderPhotos

Upload Photos

1,851,709 photos uploaded!

WunderBlogs® & News

Nearby

Air Quality

  Air Quality AQ Index Pollutant
Not available.

Snow Depth

Station Depth Elevation

Earthquake Activity

City Distance Mag. Time & Date
Minimum magnitude displayed is 2.5.

Coastal Water Temperatures

Place Temperature

Stations

Nearby Weather Stations

Station Location Temp. Windchill Dew Point Humidity Wind Precip. Elev Updated Type